Mostly Cloudy Current Weather (METAR) For Innsbruck - Kranebitten Airport

All times on the weather descriptions are local

Observed at 16:50 - (16 mins ago)

Mostly Cloudy

9°C

Mostly Cloudy
Clouds: Few Clouds at 5,000ft, Scattered Clouds at 6,000ft, Broken Clouds at 7,500ft
Wind: 060° at 10 knots, varying from 030° to 110
Visibility: Greater than 10km
QNH: 1021
Dew Point: -1°C
Runway in Use: Runway 08

Sunrise Today: 06:18
Sunset Today: 20:09

Forecast Weather (TAF) For Innsbruck - Kranebitten Airport

Issued at 02:00 - (12 days ago)


Runway in Use: Unable to determine, wind is clam

Forecast valid until 02:00 on Thursday

METAR/TAF RAW METAR / TAF

LOWI 181450Z 06010KT 030V110 9999 FEW050 SCT060 BKN075 09/M01 Q1021 NOSIG

Weather Widget

Put weather from any of our airports on your website with our weather widget.

Find Another Search

Airport Search


Please Wait Please Wait - Loading
Close
Close

Login

Username:

Password:

Remember Me:

Remember me on this computer

Forgotten your password? Get a reset password sent to your registered e-mail address

Close

User Private Message

Subject:

Message: